Time;durP1;ratioP1;P1;durP2;ratioP2;P2;SDS_P1;SDS_P2;PMS_P1;PMS_P2;Temp;Humidity;BMP_temperature;BMP_pressure;BME280_temperature;BME280_humidity;BME280_pressure;Samples;Min_cycle;Max_cycle;Signal;HPM_P1;HPM_P2
2021/12/26 00:01:38;;;;;;;;;;;23.70;99.90;;;;;;5055411;28;19962;-70
2021/12/26 00:04:05;;;;;;;;;;;23.70;99.90;;;;;;5055289;28;19913;-71
2021/12/26 00:06:32;;;;;;;;;;;23.90;99.90;;;;;;5055706;28;19960;-70
2021/12/26 00:09:00;;;;;;;;;;;24.10;99.90;;;;;;5055437;28;19954;-70
2021/12/26 00:11:27;;;;;;;;;;;24.10;99.90;;;;;;5055227;28;19947;-70
2021/12/26 00:13:55;;;;;;;;;;;24.20;99.90;;;;;;5055080;28;19962;-70
2021/12/26 00:16:22;;;;;;;;;;;24.00;99.90;;;;;;5055089;28;20360;-70
2021/12/26 00:18:49;;;;;;;;;;;24.00;99.90;;;;;;5055393;28;19991;-70
2021/12/26 00:21:16;;;;;;;;;;;24.20;99.90;;;;;;5055097;28;19922;-70
2021/12/26 00:23:43;;;;;;;;;;;24.30;99.90;;;;;;5055137;28;19948;-70
2021/12/26 00:26:10;;;;;;;;;;;24.20;99.90;;;;;;5054861;28;19920;-71
2021/12/26 00:28:37;;;;;;;;;;;24.30;99.90;;;;;;5054727;28;20310;-70
2021/12/26 00:31:04;;;;;;;;;;;24.60;99.90;;;;;;5054741;28;19952;-71
2021/12/26 00:33:32;;;;;;;;;;;24.90;99.90;;;;;;5054619;28;19913;-71
2021/12/26 00:35:59;;;;;;;;;;;25.20;99.90;;;;;;5054056;28;19909;-70
2021/12/26 00:38:27;;;;;;;;;;;25.30;99.90;;;;;;5054866;28;20278;-71
2021/12/26 00:40:54;;;;;;;;;;;25.30;99.90;;;;;;5054905;28;19916;-72
2021/12/26 00:43:21;;;;;;;;;;;25.70;99.90;;;;;;5054906;28;19908;-71
2021/12/26 00:45:48;;;;;;;;;;;25.80;99.90;;;;;;5054117;28;19974;-71
2021/12/26 00:48:15;;;;;;;;;;;26.20;99.90;;;;;;5054592;28;19913;-71
2021/12/26 00:50:42;;;;;;;;;;;26.00;99.90;;;;;;5054058;28;19908;-70
2021/12/26 00:53:09;;;;;;;;;;;25.90;99.90;;;;;;5054501;28;19916;-71
2021/12/26 00:55:35;;;;;;;;;;;26.20;99.90;;;;;;5054481;28;19914;-72
2021/12/26 00:58:02;;;;;;;;;;;26.40;99.90;;;;;;5054062;28;19916;-71
2021/12/26 01:00:30;;;;;;;;;;;26.40;99.90;;;;;;5054130;28;19924;-71
2021/12/26 01:02:59;;;;;;;;;;;26.60;99.90;;;;;;5054359;28;19909;-70
2021/12/26 01:05:26;;;;;;;;;;;26.50;99.90;;;;;;5053939;28;19995;-70
2021/12/26 01:08:01;;;;;;;;;;;26.60;99.90;;;;;;5054049;28;19909;-71
2021/12/26 01:10:35;;;;;;;;;;;26.80;99.90;;;;;;5053529;28;19967;-71
2021/12/26 01:13:13;;;;;;;;;;;27.20;99.90;;;;;;5053670;28;19913;-70
2021/12/26 01:15:41;;;;;;;;;;;27.40;99.90;;;;;;5053918;28;20278;-70
2021/12/26 01:18:07;;;;;;;;;;;27.20;99.90;;;;;;5053831;28;20318;-71
2021/12/26 01:20:42;;;;;;;;;;;26.90;99.90;;;;;;5053530;28;20274;-70
2021/12/26 01:23:10;;;;;;;;;;;26.80;99.90;;;;;;5053793;28;19931;-71
2021/12/26 01:25:37;;;;;;;;;;;26.40;99.90;;;;;;5053721;28;20358;-72
2021/12/26 01:28:04;;;;;;;;;;;26.10;99.90;;;;;;5053625;28;20355;-71
2021/12/26 01:30:32;;;;;;;;;;;25.80;99.90;;;;;;5053882;28;20379;-71
2021/12/26 01:32:58;;;;;;;;;;;25.70;99.90;;;;;;5053819;28;19916;-73
2021/12/26 01:35:25;;;;;;;;;;;25.80;99.90;;;;;;5053136;28;20395;-71
2021/12/26 01:37:52;;;;;;;;;;;25.90;99.90;;;;;;5053417;28;19909;-70
2021/12/26 01:40:18;;;;;;;;;;;26.10;99.90;;;;;;5053683;28;19916;-70
2021/12/26 01:42:45;;;;;;;;;;;26.00;99.90;;;;;;5053604;28;19913;-71
2021/12/26 01:45:12;;;;;;;;;;;26.20;99.90;;;;;;5053316;28;20375;-70
2021/12/26 01:47:38;;;;;;;;;;;26.40;99.90;;;;;;5053438;28;19912;-70
2021/12/26 01:50:07;;;;;;;;;;;26.20;99.90;;;;;;5052819;28;19959;-72
2021/12/26 01:52:33;;;;;;;;;;;26.10;99.90;;;;;;5053417;28;19908;-69
2021/12/26 01:55:12;;;;;;;;;;;26.10;99.90;;;;;;5053331;28;19964;-72
2021/12/26 01:57:38;;;;;;;;;;;26.10;99.90;;;;;;5053369;28;19970;-71
2021/12/26 02:00:06;;;;;;;;;;;26.30;99.90;;;;;;5053170;28;19913;-71
2021/12/26 02:02:33;;;;;;;;;;;26.20;99.90;;;;;;5053094;28;20356;-71
2021/12/26 02:04:59;;;;;;;;;;;26.10;99.90;;;;;;5052335;28;19919;-70
2021/12/26 02:07:26;;;;;;;;;;;26.00;99.90;;;;;;5053157;28;19909;-71
2021/12/26 02:09:53;;;;;;;;;;;26.00;99.90;;;;;;5052630;28;20311;-71
2021/12/26 02:12:19;;;;;;;;;;;26.30;99.90;;;;;;5052966;28;19909;-72
2021/12/26 02:14:46;;;;;;;;;;;26.40;99.90;;;;;;5052734;28;19970;-71
2021/12/26 02:17:15;;;;;;;;;;;26.40;99.90;;;;;;5052859;28;19916;-73
2021/12/26 02:19:42;;;;;;;;;;;26.50;99.90;;;;;;5052993;28;19909;-71
2021/12/26 02:22:16;;;;;;;;;;;26.60;99.90;;;;;;5052327;28;20267;-71
2021/12/26 02:27:32;;;;;;;;;;;26.60;99.90;;;;;;5052749;28;19954;-71
2021/12/26 02:30:00;;;;;;;;;;;26.50;99.90;;;;;;5084464;28;19915;-72
2021/12/26 02:32:27;;;;;;;;;;;26.30;99.90;;;;;;5052586;28;19916;-71
2021/12/26 02:34:55;;;;;;;;;;;26.40;99.90;;;;;;5052238;28;19924;-71
2021/12/26 02:37:21;;;;;;;;;;;26.50;99.90;;;;;;5052432;28;19912;-71
2021/12/26 02:39:48;;;;;;;;;;;26.40;99.90;;;;;;5052369;28;19909;-70
2021/12/26 02:42:17;;;;;;;;;;;26.40;99.90;;;;;;5052502;28;19955;-70
2021/12/26 02:44:44;;;;;;;;;;;26.20;99.90;;;;;;5052676;28;19916;-70
2021/12/26 02:47:10;;;;;;;;;;;26.30;99.90;;;;;;5052403;28;20046;-71
2021/12/26 02:49:37;;;;;;;;;;;26.20;99.90;;;;;;5052665;28;20003;-70
2021/12/26 02:52:04;;;;;;;;;;;26.00;99.90;;;;;;5052272;28;19916;-71
2021/12/26 02:54:31;;;;;;;;;;;26.00;99.90;;;;;;5052311;28;19916;-70
2021/12/26 02:56:57;;;;;;;;;;;25.90;99.90;;;;;;5052128;28;19915;-70
2021/12/26 02:59:24;;;;;;;;;;;25.80;99.90;;;;;;5052136;28;19975;-70
2021/12/26 03:01:51;;;;;;;;;;;26.00;99.90;;;;;;5052119;28;19948;-70
2021/12/26 03:04:17;;;;;;;;;;;25.90;99.90;;;;;;5052417;28;19913;-69
2021/12/26 03:07:01;;;;;;;;;;;26.00;99.90;;;;;;5052210;28;19916;-70
2021/12/26 03:09:32;;;;;;;;;;;26.20;99.90;;;;;;5052070;28;19913;-70
2021/12/26 03:11:58;;;;;;;;;;;26.30;99.90;;;;;;5052057;28;19924;-71
2021/12/26 03:14:25;;;;;;;;;;;26.20;99.90;;;;;;5051867;28;19967;-70
2021/12/26 03:16:52;;;;;;;;;;;26.10;99.90;;;;;;5052089;28;19909;-71
2021/12/26 03:19:19;;;;;;;;;;;26.10;99.90;;;;;;5052346;28;20087;-71
2021/12/26 03:21:49;;;;;;;;;;;26.10;99.90;;;;;;5052056;28;19912;-71
2021/12/26 03:24:16;;;;;;;;;;;26.00;99.90;;;;;;5052034;28;19909;-70
2021/12/26 03:26:42;;;;;;;;;;;26.00;99.90;;;;;;5052131;28;19952;-70
2021/12/26 03:29:09;;;;;;;;;;;26.00;99.90;;;;;;5051852;28;19963;-71
2021/12/26 03:31:36;;;;;;;;;;;26.00;99.90;;;;;;5051918;28;20283;-72
2021/12/26 03:34:03;;;;;;;;;;;26.00;99.90;;;;;;5051780;28;19916;-71
2021/12/26 03:36:29;;;;;;;;;;;25.80;99.90;;;;;;5055848;28;19948;-71
2021/12/26 03:38:56;;;;;;;;;;;25.60;99.90;;;;;;5055928;28;20355;-70
2021/12/26 03:41:23;;;;;;;;;;;25.50;99.90;;;;;;5055714;28;19920;-71
2021/12/26 03:43:49;;;;;;;;;;;25.40;99.90;;;;;;5055358;28;20007;-70
2021/12/26 03:46:16;;;;;;;;;;;25.20;99.90;;;;;;5055628;28;20388;-71
2021/12/26 03:48:43;;;;;;;;;;;25.20;99.90;;;;;;5055687;28;19908;-70
2021/12/26 03:51:10;;;;;;;;;;;25.20;99.90;;;;;;5055569;28;19909;-70
2021/12/26 03:53:37;;;;;;;;;;;25.20;99.90;;;;;;5055147;28;19917;-70
2021/12/26 03:56:03;;;;;;;;;;;25.20;99.90;;;;;;5055421;28;20287;-70
2021/12/26 03:58:30;;;;;;;;;;;25.20;99.90;;;;;;5055412;28;19915;-70
2021/12/26 04:00:57;;;;;;;;;;;25.20;99.90;;;;;;5055588;28;19943;-70
2021/12/26 04:03:24;;;;;;;;;;;25.10;99.90;;;;;;5055592;28;19909;-70
2021/12/26 04:05:50;;;;;;;;;;;25.00;99.90;;;;;;5055120;28;19909;-70
2021/12/26 04:08:17;;;;;;;;;;;25.00;99.90;;;;;;5055424;28;20421;-71
2021/12/26 04:10:44;;;;;;;;;;;24.80;99.90;;;;;;5055194;28;20015;-70
2021/12/26 04:13:11;;;;;;;;;;;24.80;99.90;;;;;;5055103;28;20206;-71
2021/12/26 04:15:38;;;;;;;;;;;24.60;99.90;;;;;;5055477;28;19909;-71
2021/12/26 04:18:05;;;;;;;;;;;24.40;99.90;;;;;;5054944;28;19919;-70
2021/12/26 04:20:32;;;;;;;;;;;24.40;99.90;;;;;;5055292;28;19913;-71
2021/12/26 04:22:59;;;;;;;;;;;24.30;99.90;;;;;;5055278;28;19909;-70
2021/12/26 04:25:26;;;;;;;;;;;24.30;99.90;;;;;;5054938;28;19913;-71
2021/12/26 04:27:52;;;;;;;;;;;24.40;99.90;;;;;;5054892;28;19916;-72
2021/12/26 04:30:20;;;;;;;;;;;24.40;99.90;;;;;;5054856;28;19932;-71
2021/12/26 04:32:47;;;;;;;;;;;24.40;99.90;;;;;;5054730;28;20335;-71
2021/12/26 04:35:14;;;;;;;;;;;24.50;99.90;;;;;;5054781;28;19935;-72
2021/12/26 04:37:41;;;;;;;;;;;24.40;99.90;;;;;;5054806;28;20403;-71
2021/12/26 04:40:08;;;;;;;;;;;24.50;99.90;;;;;;5054649;28;19912;-71
2021/12/26 04:42:37;;;;;;;;;;;24.50;99.90;;;;;;5054853;28;19952;-70
2021/12/26 04:45:07;;;;;;;;;;;24.70;99.90;;;;;;5054400;28;20284;-71
2021/12/26 04:47:34;;;;;;;;;;;24.70;99.90;;;;;;5054948;28;20003;-72
2021/12/26 04:50:01;;;;;;;;;;;24.70;99.90;;;;;;5054191;28;19916;-71
2021/12/26 04:52:28;;;;;;;;;;;24.70;99.90;;;;;;5053984;28;19913;-71
2021/12/26 04:54:54;;;;;;;;;;;24.70;99.90;;;;;;5054309;28;20418;-70
2021/12/26 04:57:21;;;;;;;;;;;24.70;99.90;;;;;;5054471;28;19909;-71
2021/12/26 04:59:48;;;;;;;;;;;24.70;99.90;;;;;;5053939;28;19908;-71
2021/12/26 05:02:14;;;;;;;;;;;24.70;99.90;;;;;;5054349;28;19919;-71
2021/12/26 05:04:42;;;;;;;;;;;24.60;99.90;;;;;;5054402;28;19913;-72
2021/12/26 05:07:08;;;;;;;;;;;24.70;99.90;;;;;;5053929;28;19909;-70
2021/12/26 05:09:36;;;;;;;;;;;24.80;99.90;;;;;;5054102;28;20007;-71
2021/12/26 05:12:02;;;;;;;;;;;24.80;99.90;;;;;;5054231;28;19917;-71
2021/12/26 05:14:29;;;;;;;;;;;24.80;99.90;;;;;;5054104;28;19916;-70
2021/12/26 05:16:55;;;;;;;;;;;24.80;99.90;;;;;;5054358;28;20418;-71
2021/12/26 05:19:22;;;;;;;;;;;24.50;99.90;;;;;;5054160;28;19909;-70
2021/12/26 05:21:49;;;;;;;;;;;24.40;99.90;;;;;;5053507;28;19909;-70
2021/12/26 05:24:15;;;;;;;;;;;24.20;99.90;;;;;;5054070;28;19920;-70
2021/12/26 05:26:42;;;;;;;;;;;24.20;99.90;;;;;;5054280;28;19909;-71
2021/12/26 05:29:09;;;;;;;;;;;24.20;99.90;;;;;;5053852;28;19932;-71
2021/12/26 05:31:35;;;;;;;;;;;24.00;99.90;;;;;;5053829;28;19944;-70
2021/12/26 05:34:02;;;;;;;;;;;24.00;99.90;;;;;;5053546;28;20291;-70
2021/12/26 05:36:29;;;;;;;;;;;24.00;99.90;;;;;;5053424;28;19920;-71
2021/12/26 05:38:56;;;;;;;;;;;23.90;99.90;;;;;;5053773;28;19992;-70
2021/12/26 05:41:23;;;;;;;;;;;23.80;99.90;;;;;;5053849;28;20356;-70
2021/12/26 05:43:50;;;;;;;;;;;23.80;99.90;;;;;;5053564;28;19915;-70
2021/12/26 05:46:16;;;;;;;;;;;23.70;99.90;;;;;;5054008;28;19963;-70
2021/12/26 05:48:43;;;;;;;;;;;23.70;99.90;;;;;;5053798;28;19909;-70
2021/12/26 05:51:10;;;;;;;;;;;23.60;99.90;;;;;;5053271;28;20264;-71
2021/12/26 05:53:36;;;;;;;;;;;23.40;99.90;;;;;;5053581;28;19917;-70
2021/12/26 05:56:03;;;;;;;;;;;23.30;99.90;;;;;;5053398;28;19940;-70
2021/12/26 05:58:30;;;;;;;;;;;23.30;99.90;;;;;;5052838;28;19908;-70
2021/12/26 06:00:56;;;;;;;;;;;23.20;99.90;;;;;;5053586;28;19909;-72
2021/12/26 06:03:23;;;;;;;;;;;23.20;99.90;;;;;;5053347;28;19908;-70
2021/12/26 06:05:50;;;;;;;;;;;23.20;99.90;;;;;;5053045;28;19937;-70
2021/12/26 06:08:17;;;;;;;;;;;23.10;99.90;;;;;;5053444;28;19916;-69
2021/12/26 06:10:44;;;;;;;;;;;23.10;99.90;;;;;;5053024;28;19924;-70
2021/12/26 06:13:10;;;;;;;;;;;23.10;99.90;;;;;;5053331;28;19912;-71
2021/12/26 06:15:37;;;;;;;;;;;23.20;99.90;;;;;;5053357;28;20000;-71
2021/12/26 06:18:04;;;;;;;;;;;23.10;99.90;;;;;;5052871;28;19909;-71
2021/12/26 06:20:30;;;;;;;;;;;23.10;99.90;;;;;;5053535;28;19916;-72
2021/12/26 06:22:57;;;;;;;;;;;22.90;99.90;;;;;;5053215;28;19908;-71
2021/12/26 06:25:24;;;;;;;;;;;22.70;99.90;;;;;;5053172;28;20270;-70
2021/12/26 06:27:50;;;;;;;;;;;22.50;99.90;;;;;;5053145;28;19915;-70
2021/12/26 06:30:17;;;;;;;;;;;22.40;99.90;;;;;;5053070;28;19959;-70
2021/12/26 06:32:44;;;;;;;;;;;22.40;99.90;;;;;;5052689;28;19909;-70
2021/12/26 06:35:12;;;;;;;;;;;22.30;99.90;;;;;;5052733;28;19909;-70
2021/12/26 06:37:39;;;;;;;;;;;22.30;99.90;;;;;;5052801;28;20038;-71
2021/12/26 06:40:07;;;;;;;;;;;22.30;99.90;;;;;;5052642;28;19916;-70
2021/12/26 06:42:39;;;;;;;;;;;22.30;99.90;;;;;;5052578;28;20410;-71
2021/12/26 06:45:06;;;;;;;;;;;22.30;99.90;;;;;;5052870;28;20326;-70
2021/12/26 06:47:33;;;;;;;;;;;22.20;99.90;;;;;;5059075;28;19909;-71
2021/12/26 06:50:00;;;;;;;;;;;22.20;99.90;;;;;;5058952;28;19943;-70
2021/12/26 06:52:26;;;;;;;;;;;22.10;99.90;;;;;;5053640;28;19908;-70
2021/12/26 06:54:53;;;;;;;;;;;21.90;99.90;;;;;;5052870;28;19917;-71
2021/12/26 06:57:20;;;;;;;;;;;21.90;99.90;;;;;;5052590;28;19922;-70
2021/12/26 06:59:46;;;;;;;;;;;21.70;99.90;;;;;;5052349;28;19909;-70
2021/12/26 07:02:13;;;;;;;;;;;21.30;99.90;;;;;;5052374;28;20000;-70
2021/12/26 07:04:40;;;;;;;;;;;21.10;99.90;;;;;;5052310;28;19916;-70
2021/12/26 07:07:06;;;;;;;;;;;20.90;99.90;;;;;;5052551;28;19913;-70
2021/12/26 07:09:33;;;;;;;;;;;20.80;99.90;;;;;;5053076;28;19909;-71
2021/12/26 07:12:00;;;;;;;;;;;20.70;99.90;;;;;;5056357;28;20263;-70
2021/12/26 07:14:26;;;;;;;;;;;20.60;99.90;;;;;;5055774;28;20278;-71
2021/12/26 07:16:53;;;;;;;;;;;20.50;99.90;;;;;;5056486;28;20052;-70
2021/12/26 07:19:19;;;;;;;;;;;20.30;99.90;;;;;;5056306;28;19960;-71
2021/12/26 07:21:46;;;;;;;;;;;20.20;99.90;;;;;;5056042;28;19909;-71
2021/12/26 07:24:13;;;;;;;;;;;20.20;99.90;;;;;;5056172;28;19944;-70
2021/12/26 07:26:39;;;;;;;;;;;20.30;99.90;;;;;;5056120;28;19916;-70
2021/12/26 07:29:06;;;;;;;;;;;20.30;99.90;;;;;;5055511;28;19913;-71
2021/12/26 07:31:33;;;;;;;;;;;20.30;99.90;;;;;;5056277;28;19909;-72
2021/12/26 07:33:59;;;;;;;;;;;20.20;99.90;;;;;;5055631;28;19969;-70
2021/12/26 07:36:26;;;;;;;;;;;20.20;99.90;;;;;;5056003;28;20007;-70
2021/12/26 07:38:53;;;;;;;;;;;20.30;99.90;;;;;;5056007;28;19909;-70
2021/12/26 07:41:20;;;;;;;;;;;20.40;99.90;;;;;;5055915;28;20318;-70
2021/12/26 07:43:47;;;;;;;;;;;20.40;99.90;;;;;;5054938;28;19909;-70
2021/12/26 07:46:14;;;;;;;;;;;20.50;99.90;;;;;;5055811;28;19909;-71
2021/12/26 07:48:43;;;;;;;;;;;20.50;99.90;;;;;;5055695;28;19909;-71
2021/12/26 07:51:10;;;;;;;;;;;20.60;99.90;;;;;;5055818;28;20330;-71
2021/12/26 07:53:37;;;;;;;;;;;20.60;99.90;;;;;;5055793;28;19913;-71
2021/12/26 07:56:03;;;;;;;;;;;20.60;99.90;;;;;;5055048;28;20007;-70
2021/12/26 07:58:30;;;;;;;;;;;20.60;99.90;;;;;;5055428;28;19913;-70
2021/12/26 08:00:57;;;;;;;;;;;20.70;99.90;;;;;;5055558;28;20379;-70
2021/12/26 08:03:23;;;;;;;;;;;20.60;99.90;;;;;;5055515;28;19915;-71
2021/12/26 08:05:50;;;;;;;;;;;20.70;99.90;;;;;;5055226;28;19992;-70
2021/12/26 08:08:17;;;;;;;;;;;20.70;99.90;;;;;;5055509;28;19913;-70
2021/12/26 08:10:43;;;;;;;;;;;20.70;99.90;;;;;;5055342;28;19921;-71
2021/12/26 08:13:10;;;;;;;;;;;20.70;99.90;;;;;;5055396;28;19913;-71
2021/12/26 08:15:37;;;;;;;;;;;20.70;99.90;;;;;;5055322;28;19913;-70
2021/12/26 08:18:03;;;;;;;;;;;20.70;99.90;;;;;;5055023;28;19916;-71
2021/12/26 08:20:30;;;;;;;;;;;20.70;99.90;;;;;;5054721;28;19934;-71
2021/12/26 08:22:57;;;;;;;;;;;20.80;99.90;;;;;;5055213;28;19909;-70
2021/12/26 08:25:24;;;;;;;;;;;20.80;99.90;;;;;;5055184;28;19915;-70
2021/12/26 08:27:51;;;;;;;;;;;20.80;99.90;;;;;;5054708;28;20003;-71
2021/12/26 08:30:17;;;;;;;;;;;20.80;99.90;;;;;;5054947;28;19917;-71
2021/12/26 08:32:47;;;;;;;;;;;20.80;99.90;;;;;;5054890;28;19909;-71
2021/12/26 08:35:13;;;;;;;;;;;20.90;99.90;;;;;;5054685;28;19963;-71
2021/12/26 08:37:40;;;;;;;;;;;20.80;99.90;;;;;;5054776;28;19908;-71
2021/12/26 08:40:07;;;;;;;;;;;20.80;99.90;;;;;;5054690;28;20256;-70
2021/12/26 08:42:34;;;;;;;;;;;20.80;99.90;;;;;;5054471;28;20003;-70
2021/12/26 08:45:01;;;;;;;;;;;20.70;99.90;;;;;;5054703;28;19912;-70
2021/12/26 08:47:27;;;;;;;;;;;20.60;99.90;;;;;;5054656;28;19916;-70
2021/12/26 08:49:54;;;;;;;;;;;20.60;99.90;;;;;;5053926;28;19909;-71
2021/12/26 08:52:21;;;;;;;;;;;20.70;99.90;;;;;;5054613;28;19909;-71
2021/12/26 08:54:48;;;;;;;;;;;20.70;99.90;;;;;;5054605;28;19924;-70
2021/12/26 08:57:15;;;;;;;;;;;20.70;99.90;;;;;;5054233;28;20000;-72
2021/12/26 08:59:42;;;;;;;;;;;20.80;99.90;;;;;;5054409;28;20450;-71
2021/12/26 09:02:09;;;;;;;;;;;20.70;99.90;;;;;;5054178;28;20257;-72
2021/12/26 09:04:37;;;;;;;;;;;20.80;99.90;;;;;;5053837;28;19913;-70
2021/12/26 09:07:04;;;;;;;;;;;20.70;99.90;;;;;;5054352;28;19916;-71
2021/12/26 09:09:31;;;;;;;;;;;20.70;99.90;;;;;;5054185;28;19909;-71
2021/12/26 09:11:58;;;;;;;;;;;20.80;99.90;;;;;;5053831;28;20368;-70
2021/12/26 09:14:25;;;;;;;;;;;20.80;99.90;;;;;;5054267;28;19924;-72
2021/12/26 09:16:52;;;;;;;;;;;20.80;99.90;;;;;;5054345;28;19944;-70
2021/12/26 09:19:18;;;;;;;;;;;20.80;99.90;;;;;;5053554;28;20355;-71
2021/12/26 09:21:45;;;;;;;;;;;20.80;99.90;;;;;;5054070;28;20375;-70
2021/12/26 09:24:12;;;;;;;;;;;20.80;99.90;;;;;;5053971;28;19916;-71
2021/12/26 09:26:38;;;;;;;;;;;20.90;99.90;;;;;;5053815;28;19908;-71
2021/12/26 09:29:05;;;;;;;;;;;20.90;99.90;;;;;;5053884;28;20004;-71
2021/12/26 09:31:32;;;;;;;;;;;20.80;99.90;;;;;;5053374;28;19944;-71
2021/12/26 09:33:58;;;;;;;;;;;20.80;99.90;;;;;;5052583;28;19921;-71
2021/12/26 09:36:25;;;;;;;;;;;20.80;99.90;;;;;;5053908;28;19966;-71
2021/12/26 09:38:52;;;;;;;;;;;20.70;99.90;;;;;;5053492;28;20436;-70
2021/12/26 09:41:18;;;;;;;;;;;20.70;99.90;;;;;;5053533;28;19913;-70
2021/12/26 09:43:45;;;;;;;;;;;20.70;99.90;;;;;;5053736;28;19912;-70
2021/12/26 09:46:12;;;;;;;;;;;20.70;99.90;;;;;;5053656;28;19961;-70
2021/12/26 09:48:39;;;;;;;;;;;20.70;99.90;;;;;;5053617;28;19954;-70
2021/12/26 09:51:06;;;;;;;;;;;20.70;99.90;;;;;;5053456;28;19912;-70
2021/12/26 09:53:43;;;;;;;;;;;20.70;99.90;;;;;;5053275;28;19913;-71
2021/12/26 09:56:10;;;;;;;;;;;20.70;99.90;;;;;;5053125;28;19913;-70
2021/12/26 09:58:51;;;;;;;;;;;20.70;99.90;;;;;;5053474;28;20419;-71
2021/12/26 10:01:26;;;;;;;;;;;20.70;99.90;;;;;;5053333;28;19912;-70
2021/12/26 10:03:53;;;;;;;;;;;20.70;99.90;;;;;;5053017;28;19912;-71
2021/12/26 10:06:20;;;;;;;;;;;20.70;99.90;;;;;;5053218;28;19916;-70
2021/12/26 10:08:53;;;;;;;;;;;20.70;99.90;;;;;;5053187;28;19909;-70
2021/12/26 10:11:20;;;;;;;;;;;20.70;99.90;;;;;;5052820;28;19935;-70
2021/12/26 10:13:48;;;;;;;;;;;20.80;99.90;;;;;;5052822;28;20378;-70
2021/12/26 10:16:16;;;;;;;;;;;20.80;99.90;;;;;;5053023;28;19948;-70
2021/12/26 10:18:43;;;;;;;;;;;20.80;99.90;;;;;;5052893;28;20454;-70
2021/12/26 10:21:25;;;;;;;;;;;20.90;99.90;;;;;;5052608;28;20394;-71
2021/12/26 10:24:03;;;;;;;;;;;20.90;99.90;;;;;;5052692;28;19966;-71
2021/12/26 10:26:31;;;;;;;;;;;21.00;99.90;;;;;;5052700;28;20364;-70
2021/12/26 10:29:15;;;;;;;;;;;21.00;99.90;;;;;;5052654;28;19912;-70
2021/12/26 10:31:48;;;;;;;;;;;21.00;99.90;;;;;;5052644;28;19913;-71
2021/12/26 10:34:17;;;;;;;;;;;21.00;99.90;;;;;;5052650;28;20108;-70
2021/12/26 10:36:44;;;;;;;;;;;21.10;99.90;;;;;;5052480;28;20310;-71
2021/12/26 10:39:12;;;;;;;;;;;21.10;99.90;;;;;;5052407;28;19912;-71
2021/12/26 10:41:43;;;;;;;;;;;21.20;99.90;;;;;;5052502;28;20015;-71
2021/12/26 10:44:23;;;;;;;;;;;21.20;99.90;;;;;;5052189;28;20514;-71
2021/12/26 10:46:50;;;;;;;;;;;21.20;99.90;;;;;;5052440;28;19931;-70
2021/12/26 10:49:28;;;;;;;;;;;21.20;99.90;;;;;;5052287;28;19913;-70
2021/12/26 10:51:55;;;;;;;;;;;21.10;99.90;;;;;;5052193;28;19908;-70
2021/12/26 10:54:27;;;;;;;;;;;21.20;99.90;;;;;;5052292;28;20013;-70
2021/12/26 10:57:12;;;;;;;;;;;21.20;99.90;;;;;;5052358;28;19909;-71
2021/12/26 10:59:39;;;;;;;;;;;21.20;99.90;;;;;;5052523;28;19909;-70
2021/12/26 11:02:06;;;;;;;;;;;21.20;99.90;;;;;;5052237;28;20257;-70
2021/12/26 11:04:34;;;;;;;;;;;21.20;99.90;;;;;;5052322;28;20283;-70
2021/12/26 11:07:03;;;;;;;;;;;21.20;99.90;;;;;;5052530;28;19909;-70
2021/12/26 11:09:30;;;;;;;;;;;21.10;99.90;;;;;;5052355;28;19945;-71
2021/12/26 11:12:02;;;;;;;;;;;21.00;99.90;;;;;;5051785;28;19909;-70
2021/12/26 11:14:29;;;;;;;;;;;21.10;99.90;;;;;;5051694;28;20383;-70
2021/12/26 11:16:55;;;;;;;;;;;21.10;99.90;;;;;;5052223;28;19916;-70
2021/12/26 11:19:41;;;;;;;;;;;21.10;99.90;;;;;;5052334;28;19988;-70
2021/12/26 11:22:08;;;;;;;;;;;21.10;99.90;;;;;;5051848;28;19919;-70
2021/12/26 11:24:34;;;;;;;;;;;21.10;99.90;;;;;;5052175;28;20406;-70
2021/12/26 11:27:02;;;;;;;;;;;21.10;99.90;;;;;;5052114;28;19908;-70
2021/12/26 11:29:29;;;;;;;;;;;21.10;99.90;;;;;;5051393;28;19995;-70
2021/12/26 11:31:56;;;;;;;;;;;20.60;99.90;;;;;;5051929;28;20005;-70
2021/12/26 11:34:23;;;;;;;;;;;20.20;99.90;;;;;;5052002;28;19916;-71
2021/12/26 11:36:50;;;;;;;;;;;20.00;99.90;;;;;;5052080;28;19909;-71
2021/12/26 11:39:17;;;;;;;;;;;19.80;99.90;;;;;;5052113;28;19909;-72
2021/12/26 11:42:02;;;;;;;;;;;19.80;99.90;;;;;;5051781;28;19935;-71
2021/12/26 11:44:32;;;;;;;;;;;19.60;99.90;;;;;;5051970;28;19916;-71
2021/12/26 11:47:16;;;;;;;;;;;19.50;99.90;;;;;;5051804;28;19913;-71
2021/12/26 11:49:50;;;;;;;;;;;19.50;99.90;;;;;;5051998;28;19963;-71
2021/12/26 11:52:41;;;;;;;;;;;19.40;99.90;;;;;;5051712;28;19919;-70
2021/12/26 11:55:28;;;;;;;;;;;19.30;99.90;;;;;;5051906;28;19955;-72
2021/12/26 11:58:13;;;;;;;;;;;19.20;99.90;;;;;;5055319;28;20025;-70
2021/12/26 12:00:41;;;;;;;;;;;19.30;99.90;;;;;;5055315;28;19994;-71
2021/12/26 12:03:29;;;;;;;;;;;19.30;99.90;;;;;;5055439;28;19909;-70
2021/12/26 12:05:56;;;;;;;;;;;19.20;99.90;;;;;;5054883;28;20004;-71
2021/12/26 12:08:23;;;;;;;;;;;19.30;99.90;;;;;;5055292;28;19909;-71
2021/12/26 12:10:53;;;;;;;;;;;19.30;99.90;;;;;;5087109;28;20363;-76
2021/12/26 12:13:22;;;;;;;;;;;19.30;99.90;;;;;;5054988;28;19920;-74
2021/12/26 12:15:49;;;;;;;;;;;19.30;99.90;;;;;;5055093;28;19913;-72
2021/12/26 12:18:18;;;;;;;;;;;19.30;99.90;;;;;;5055039;28;19943;-73
2021/12/26 12:20:45;;;;;;;;;;;19.30;99.90;;;;;;5054986;28;19963;-70
2021/12/26 12:23:15;;;;;;;;;;;19.30;99.90;;;;;;5055114;28;19944;-73
2021/12/26 12:25:49;;;;;;;;;;;19.20;99.90;;;;;;5054907;28;19919;-71
2021/12/26 12:28:20;;;;;;;;;;;19.20;99.90;;;;;;5054957;28;19916;-71
2021/12/26 12:30:49;;;;;;;;;;;19.20;99.90;;;;;;5054967;28;19909;-71
2021/12/26 12:33:29;;;;;;;;;;;19.20;99.90;;;;;;5054784;28;20352;-72
2021/12/26 12:36:00;;;;;;;;;;;19.20;99.90;;;;;;5086704;28;19958;-71
2021/12/26 12:38:32;;;;;;;;;;;19.20;99.90;;;;;;5054955;28;19940;-72
2021/12/26 12:40:59;;;;;;;;;;;19.20;99.90;;;;;;5054666;28;19909;-76
2021/12/26 12:43:27;;;;;;;;;;;19.20;99.90;;;;;;5054605;28;19924;-71
2021/12/26 12:48:25;;;;;;;;;;;19.10;99.90;;;;;;5055061;28;19908;-71
2021/12/26 12:50:53;;;;;;;;;;;19.10;99.90;;;;;;5054438;28;19913;-71
2021/12/26 12:53:38;;;;;;;;;;;19.10;99.90;;;;;;5054339;28;20003;-70
2021/12/26 12:56:06;;;;;;;;;;;19.10;99.90;;;;;;5054294;28;19924;-73
2021/12/26 12:58:36;;;;;;;;;;;19.10;99.90;;;;;;5054411;28;20000;-71
2021/12/26 13:01:06;;;;;;;;;;;19.10;99.90;;;;;;5054526;28;19916;-71
2021/12/26 13:03:36;;;;;;;;;;;19.00;99.90;;;;;;5054991;28;19908;-72
2021/12/26 13:06:10;;;;;;;;;;;19.00;99.90;;;;;;5054243;28;19909;-72
2021/12/26 13:08:37;;;;;;;;;;;18.90;99.90;;;;;;5054298;28;19909;-72
2021/12/26 13:11:06;;;;;;;;;;;19.00;99.90;;;;;;5054193;28;20375;-73
2021/12/26 13:13:32;;;;;;;;;;;19.00;99.90;;;;;;5054295;28;19920;-71
2021/12/26 13:15:59;;;;;;;;;;;19.00;99.90;;;;;;5054031;28;20422;-71
2021/12/26 13:18:28;;;;;;;;;;;18.90;99.90;;;;;;5054179;28;19912;-73
2021/12/26 13:20:56;;;;;;;;;;;18.90;99.90;;;;;;5054336;28;19999;-72
2021/12/26 13:23:24;;;;;;;;;;;18.90;99.90;;;;;;5054062;28;19955;-75
2021/12/26 13:25:51;;;;;;;;;;;18.80;99.90;;;;;;5053683;28;19909;-71
2021/12/26 13:28:18;;;;;;;;;;;18.90;99.90;;;;;;5053952;28;20225;-76
2021/12/26 13:30:46;;;;;;;;;;;18.90;99.90;;;;;;5054066;28;19916;-75
2021/12/26 13:33:16;;;;;;;;;;;18.90;99.90;;;;;;5053762;28;19958;-76
2021/12/26 13:35:43;;;;;;;;;;;18.90;99.90;;;;;;5053827;28;19960;-76
2021/12/26 13:38:10;;;;;;;;;;;18.80;99.90;;;;;;5053785;28;19908;-74
2021/12/26 13:40:39;;;;;;;;;;;18.80;99.90;;;;;;5053733;28;20271;-75
2021/12/26 13:43:06;;;;;;;;;;;18.60;99.90;;;;;;5053619;28;19912;-77
2021/12/26 13:45:34;;;;;;;;;;;18.60;99.90;;;;;;5053565;28;19916;-75
2021/12/26 13:48:01;;;;;;;;;;;18.50;99.90;;;;;;5053272;28;20375;-79
2021/12/26 13:50:28;;;;;;;;;;;18.50;99.90;;;;;;5053523;28;19909;-71
2021/12/26 13:53:04;;;;;;;;;;;18.50;99.90;;;;;;5053461;28;19962;-72
2021/12/26 13:55:37;;;;;;;;;;;18.40;99.90;;;;;;5053286;28;19917;-73
2021/12/26 13:58:09;;;;;;;;;;;18.30;99.90;;;;;;5053146;28;19909;-75
2021/12/26 14:00:49;;;;;;;;;;;18.30;99.90;;;;;;5053424;28;20462;-77
2021/12/26 14:03:16;;;;;;;;;;;18.30;99.90;;;;;;5053550;28;19992;-72
2021/12/26 14:05:43;;;;;;;;;;;18.30;99.90;;;;;;5053383;28;19909;-74
2021/12/26 14:08:17;;;;;;;;;;;18.30;99.90;;;;;;5053101;28;19909;-75
2021/12/26 14:10:44;;;;;;;;;;;18.30;99.90;;;;;;5053028;28;20039;-71
2021/12/26 14:13:12;;;;;;;;;;;18.40;99.90;;;;;;5053035;28;19915;-72
2021/12/26 14:15:45;;;;;;;;;;;18.40;99.90;;;;;;5052470;28;21368;-72
2021/12/26 14:18:21;;;;;;;;;;;18.40;99.90;;;;;;5052582;28;19915;-72
2021/12/26 14:20:53;;;;;;;;;;;18.40;99.90;;;;;;5053212;28;19915;-75
2021/12/26 14:23:26;;;;;;;;;;;18.50;99.90;;;;;;5052956;28;19909;-76
2021/12/26 14:26:05;;;;;;;;;;;18.50;99.90;;;;;;5052615;28;20421;-79
2021/12/26 14:28:32;;;;;;;;;;;18.40;99.90;;;;;;5052822;28;20413;-75